sensor_id;sensor_type;location;lat;lon;timestamp;temperature;humidity
37886;DHT22;23726;52.520;13.434;2022-12-29T00:01:31;20.60;38.20
37886;DHT22;23726;52.520;13.434;2022-12-29T00:03:57;20.60;38.30
37886;DHT22;23726;52.520;13.434;2022-12-29T00:06:23;20.60;38.10
37886;DHT22;23726;52.520;13.434;2022-12-29T00:08:48;20.60;38.20
37886;DHT22;23726;52.520;13.434;2022-12-29T00:11:23;20.60;38.00
37886;DHT22;23726;52.520;13.434;2022-12-29T00:13:49;20.60;38.10
37886;DHT22;23726;52.520;13.434;2022-12-29T00:16:35;20.60;38.10
37886;DHT22;23726;52.520;13.434;2022-12-29T00:19:01;20.60;38.10
37886;DHT22;23726;52.520;13.434;2022-12-29T00:21:28;20.60;38.20
37886;DHT22;23726;52.520;13.434;2022-12-29T00:24:22;20.60;38.20
37886;DHT22;23726;52.520;13.434;2022-12-29T00:30:01;20.60;38.20
37886;DHT22;23726;52.520;13.434;2022-12-29T00:32:45;20.60;38.20
37886;DHT22;23726;52.520;13.434;2022-12-29T00:35:33;20.50;38.20
37886;DHT22;23726;52.520;13.434;2022-12-29T00:38:05;20.50;38.00
37886;DHT22;23726;52.520;13.434;2022-12-29T00:40:49;20.50;38.60
37886;DHT22;23726;52.520;13.434;2022-12-29T00:43:33;20.50;38.10
37886;DHT22;23726;52.520;13.434;2022-12-29T00:46:17;20.50;37.90
37886;DHT22;23726;52.520;13.434;2022-12-29T00:48:43;20.60;38.20
37886;DHT22;23726;52.520;13.434;2022-12-29T00:51:27;20.50;38.20
37886;DHT22;23726;52.520;13.434;2022-12-29T00:53:53;20.50;38.20
37886;DHT22;23726;52.520;13.434;2022-12-29T00:56:24;20.50;38.00
37886;DHT22;23726;52.520;13.434;2022-12-29T00:58:50;20.50;38.00
37886;DHT22;23726;52.520;13.434;2022-12-29T01:01:29;20.50;38.10
37886;DHT22;23726;52.520;13.434;2022-12-29T01:03:55;20.50;38.00
37886;DHT22;23726;52.520;13.434;2022-12-29T01:06:22;20.50;38.00
37886;DHT22;23726;52.520;13.434;2022-12-29T01:08:48;20.50;37.90
37886;DHT22;23726;52.520;13.434;2022-12-29T01:11:33;20.60;38.20
37886;DHT22;23726;52.520;13.434;2022-12-29T01:13:59;20.50;38.00
37886;DHT22;23726;52.520;13.434;2022-12-29T01:16:25;20.50;37.90
37886;DHT22;23726;52.520;13.434;2022-12-29T01:18:50;20.60;38.00
37886;DHT22;23726;52.520;13.434;2022-12-29T01:21:16;20.60;38.00
37886;DHT22;23726;52.520;13.434;2022-12-29T01:23:41;20.50;38.10
37886;DHT22;23726;52.520;13.434;2022-12-29T01:26:11;20.50;38.10
37886;DHT22;23726;52.520;13.434;2022-12-29T01:28:37;20.50;37.90
37886;DHT22;23726;52.520;13.434;2022-12-29T01:31:06;20.50;37.80
37886;DHT22;23726;52.520;13.434;2022-12-29T01:33:31;20.50;37.90
37886;DHT22;23726;52.520;13.434;2022-12-29T01:36:02;20.60;38.10
37886;DHT22;23726;52.520;13.434;2022-12-29T01:38:27;20.60;38.60
37886;DHT22;23726;52.520;13.434;2022-12-29T01:40:54;20.60;38.20
37886;DHT22;23726;52.520;13.434;2022-12-29T01:43:20;20.60;38.20
37886;DHT22;23726;52.520;13.434;2022-12-29T01:45:50;20.60;38.20
37886;DHT22;23726;52.520;13.434;2022-12-29T01:48:18;20.60;38.20
37886;DHT22;23726;52.520;13.434;2022-12-29T01:50:50;20.60;38.70
37886;DHT22;23726;52.520;13.434;2022-12-29T01:53:28;20.60;38.20
37886;DHT22;23726;52.520;13.434;2022-12-29T01:55:58;20.60;38.20
37886;DHT22;23726;52.520;13.434;2022-12-29T01:58:26;20.60;38.20
37886;DHT22;23726;52.520;13.434;2022-12-29T02:00:54;20.60;38.20
37886;DHT22;23726;52.520;13.434;2022-12-29T02:03:20;20.60;38.30
37886;DHT22;23726;52.520;13.434;2022-12-29T02:06:14;20.60;38.30
37886;DHT22;23726;52.520;13.434;2022-12-29T02:08:43;20.70;38.40
37886;DHT22;23726;52.520;13.434;2022-12-29T02:11:11;20.70;38.40
37886;DHT22;23726;52.520;13.434;2022-12-29T02:13:38;20.70;38.40
37886;DHT22;23726;52.520;13.434;2022-12-29T02:25:07;20.70;38.40
37886;DHT22;23726;52.520;13.434;2022-12-29T02:27:55;20.70;38.60
37886;DHT22;23726;52.520;13.434;2022-12-29T02:30:50;20.70;38.70
37886;DHT22;23726;52.520;13.434;2022-12-29T02:47:22;20.80;38.70
37886;DHT22;23726;52.520;13.434;2022-12-29T02:50:36;20.80;38.70
37886;DHT22;23726;52.520;13.434;2022-12-29T02:52:50;20.80;38.90
37886;DHT22;23726;52.520;13.434;2022-12-29T02:55:16;20.80;38.90
37886;DHT22;23726;52.520;13.434;2022-12-29T02:57:42;20.80;38.80
37886;DHT22;23726;52.520;13.434;2022-12-29T03:08:55;20.80;38.80
37886;DHT22;23726;52.520;13.434;2022-12-29T03:11:29;20.80;38.90
37886;DHT22;23726;52.520;13.434;2022-12-29T03:17:13;20.80;38.90
37886;DHT22;23726;52.520;13.434;2022-12-29T03:19:47;20.80;39.00
37886;DHT22;23726;52.520;13.434;2022-12-29T03:22:28;20.80;39.00
37886;DHT22;23726;52.520;13.434;2022-12-29T03:25:11;20.80;39.00
37886;DHT22;23726;52.520;13.434;2022-12-29T03:27:49;20.80;38.90
37886;DHT22;23726;52.520;13.434;2022-12-29T03:30:15;20.80;38.90
37886;DHT22;23726;52.520;13.434;2022-12-29T03:32:45;20.80;38.90
37886;DHT22;23726;52.520;13.434;2022-12-29T03:35:14;20.80;39.10
37886;DHT22;23726;52.520;13.434;2022-12-29T03:37:51;20.80;39.00
37886;DHT22;23726;52.520;13.434;2022-12-29T03:40:21;20.80;39.10
37886;DHT22;23726;52.520;13.434;2022-12-29T03:42:48;20.90;39.00
37886;DHT22;23726;52.520;13.434;2022-12-29T03:45:14;20.90;39.20
37886;DHT22;23726;52.520;13.434;2022-12-29T03:47:40;20.90;39.00
37886;DHT22;23726;52.520;13.434;2022-12-29T03:50:06;20.90;39.00
37886;DHT22;23726;52.520;13.434;2022-12-29T03:52:34;20.90;39.10
37886;DHT22;23726;52.520;13.434;2022-12-29T03:54:59;20.90;39.20
37886;DHT22;23726;52.520;13.434;2022-12-29T03:57:33;20.90;39.20
37886;DHT22;23726;52.520;13.434;2022-12-29T03:59:59;20.90;39.10
37886;DHT22;23726;52.520;13.434;2022-12-29T04:02:24;20.90;39.20
37886;DHT22;23726;52.520;13.434;2022-12-29T04:04:50;20.90;39.30
37886;DHT22;23726;52.520;13.434;2022-12-29T04:07:15;20.90;39.10
37886;DHT22;23726;52.520;13.434;2022-12-29T04:09:41;20.90;39.30
37886;DHT22;23726;52.520;13.434;2022-12-29T04:12:07;20.90;39.20
37886;DHT22;23726;52.520;13.434;2022-12-29T04:14:32;20.90;39.20
37886;DHT22;23726;52.520;13.434;2022-12-29T04:16:58;20.90;39.30
37886;DHT22;23726;52.520;13.434;2022-12-29T04:19:24;20.90;39.30
37886;DHT22;23726;52.520;13.434;2022-12-29T04:21:50;20.90;39.30
37886;DHT22;23726;52.520;13.434;2022-12-29T04:24:15;20.90;39.30
37886;DHT22;23726;52.520;13.434;2022-12-29T04:26:41;20.90;39.20
37886;DHT22;23726;52.520;13.434;2022-12-29T04:29:07;20.90;39.30
37886;DHT22;23726;52.520;13.434;2022-12-29T04:31:33;20.90;39.50
37886;DHT22;23726;52.520;13.434;2022-12-29T04:33:58;20.90;39.40
37886;DHT22;23726;52.520;13.434;2022-12-29T04:36:25;20.90;39.40
37886;DHT22;23726;52.520;13.434;2022-12-29T04:38:51;20.90;39.50
37886;DHT22;23726;52.520;13.434;2022-12-29T04:41:17;20.90;39.50
37886;DHT22;23726;52.520;13.434;2022-12-29T04:43:43;20.90;39.20
37886;DHT22;23726;52.520;13.434;2022-12-29T04:46:08;20.90;39.60
37886;DHT22;23726;52.520;13.434;2022-12-29T04:48:34;20.90;39.50
37886;DHT22;23726;52.520;13.434;2022-12-29T04:51:00;21.00;39.60
37886;DHT22;23726;52.520;13.434;2022-12-29T04:53:26;21.00;39.70
37886;DHT22;23726;52.520;13.434;2022-12-29T04:55:52;20.90;39.60
37886;DHT22;23726;52.520;13.434;2022-12-29T04:58:22;20.90;39.60
37886;DHT22;23726;52.520;13.434;2022-12-29T05:00:54;20.90;39.50
37886;DHT22;23726;52.520;13.434;2022-12-29T05:03:19;21.00;39.70
37886;DHT22;23726;52.520;13.434;2022-12-29T05:05:45;20.90;39.60
37886;DHT22;23726;52.520;13.434;2022-12-29T05:08:11;20.90;39.60
37886;DHT22;23726;52.520;13.434;2022-12-29T05:10:36;20.90;39.70
37886;DHT22;23726;52.520;13.434;2022-12-29T05:13:03;20.90;39.70
37886;DHT22;23726;52.520;13.434;2022-12-29T05:15:30;20.90;39.70
37886;DHT22;23726;52.520;13.434;2022-12-29T05:17:56;20.90;39.60
37886;DHT22;23726;52.520;13.434;2022-12-29T05:20:21;20.90;39.70
37886;DHT22;23726;52.520;13.434;2022-12-29T05:22:47;21.00;39.80
37886;DHT22;23726;52.520;13.434;2022-12-29T05:25:13;21.00;39.80
37886;DHT22;23726;52.520;13.434;2022-12-29T05:27:38;21.00;39.80
37886;DHT22;23726;52.520;13.434;2022-12-29T05:30:04;21.00;39.90
37886;DHT22;23726;52.520;13.434;2022-12-29T05:32:30;21.00;39.90
37886;DHT22;23726;52.520;13.434;2022-12-29T05:34:57;21.00;39.80
37886;DHT22;23726;52.520;13.434;2022-12-29T05:37:22;21.00;40.40
37886;DHT22;23726;52.520;13.434;2022-12-29T05:39:48;21.00;40.00
37886;DHT22;23726;52.520;13.434;2022-12-29T05:42:13;21.00;40.00
37886;DHT22;23726;52.520;13.434;2022-12-29T05:44:39;21.00;40.00
37886;DHT22;23726;52.520;13.434;2022-12-29T05:47:06;21.00;39.90
37886;DHT22;23726;52.520;13.434;2022-12-29T05:49:32;21.00;40.00
37886;DHT22;23726;52.520;13.434;2022-12-29T05:51:58;21.00;40.00
37886;DHT22;23726;52.520;13.434;2022-12-29T05:54:23;21.00;40.00
37886;DHT22;23726;52.520;13.434;2022-12-29T05:56:51;21.00;39.80
37886;DHT22;23726;52.520;13.434;2022-12-29T05:59:17;21.00;40.00
37886;DHT22;23726;52.520;13.434;2022-12-29T06:01:42;21.00;40.00
37886;DHT22;23726;52.520;13.434;2022-12-29T06:04:08;21.00;40.00
37886;DHT22;23726;52.520;13.434;2022-12-29T06:06:35;21.00;40.10
37886;DHT22;23726;52.520;13.434;2022-12-29T06:09:01;21.00;40.00
37886;DHT22;23726;52.520;13.434;2022-12-29T06:11:26;21.00;39.90
37886;DHT22;23726;52.520;13.434;2022-12-29T06:13:53;21.00;40.00
37886;DHT22;23726;52.520;13.434;2022-12-29T06:16:22;21.00;40.00
37886;DHT22;23726;52.520;13.434;2022-12-29T06:18:47;21.00;40.00
37886;DHT22;23726;52.520;13.434;2022-12-29T06:21:13;21.00;40.00
37886;DHT22;23726;52.520;13.434;2022-12-29T06:23:38;21.00;40.00
37886;DHT22;23726;52.520;13.434;2022-12-29T06:26:05;21.00;40.10
37886;DHT22;23726;52.520;13.434;2022-12-29T06:28:31;21.00;40.00
37886;DHT22;23726;52.520;13.434;2022-12-29T06:30:58;21.00;40.00
37886;DHT22;23726;52.520;13.434;2022-12-29T06:33:23;21.00;40.00
37886;DHT22;23726;52.520;13.434;2022-12-29T06:35:51;21.00;40.10
37886;DHT22;23726;52.520;13.434;2022-12-29T06:38:20;21.00;40.10
37886;DHT22;23726;52.520;13.434;2022-12-29T06:40:46;21.00;40.20
37886;DHT22;23726;52.520;13.434;2022-12-29T06:43:12;21.00;40.10
37886;DHT22;23726;52.520;13.434;2022-12-29T06:45:39;21.10;40.20
37886;DHT22;23726;52.520;13.434;2022-12-29T06:48:06;21.00;40.10
37886;DHT22;23726;52.520;13.434;2022-12-29T06:50:32;21.10;40.20
37886;DHT22;23726;52.520;13.434;2022-12-29T06:52:58;21.00;40.20
37886;DHT22;23726;52.520;13.434;2022-12-29T06:55:24;21.10;40.20
37886;DHT22;23726;52.520;13.434;2022-12-29T06:57:49;21.10;40.20
37886;DHT22;23726;52.520;13.434;2022-12-29T07:00:15;21.00;40.20
37886;DHT22;23726;52.520;13.434;2022-12-29T07:02:42;21.00;40.20
37886;DHT22;23726;52.520;13.434;2022-12-29T07:05:09;21.10;40.30
37886;DHT22;23726;52.520;13.434;2022-12-29T07:07:35;21.00;40.20
37886;DHT22;23726;52.520;13.434;2022-12-29T07:10:01;21.10;40.40
37886;DHT22;23726;52.520;13.434;2022-12-29T07:12:26;21.00;40.30
37886;DHT22;23726;52.520;13.434;2022-12-29T07:14:53;21.10;40.20
37886;DHT22;23726;52.520;13.434;2022-12-29T07:17:20;21.10;40.20
37886;DHT22;23726;52.520;13.434;2022-12-29T07:19:45;21.10;40.30
37886;DHT22;23726;52.520;13.434;2022-12-29T07:22:11;21.10;40.30
37886;DHT22;23726;52.520;13.434;2022-12-29T07:24:37;21.10;40.30
37886;DHT22;23726;52.520;13.434;2022-12-29T07:27:04;21.10;40.40
37886;DHT22;23726;52.520;13.434;2022-12-29T07:29:30;21.10;40.40
37886;DHT22;23726;52.520;13.434;2022-12-29T07:31:58;21.10;40.20
37886;DHT22;23726;52.520;13.434;2022-12-29T07:34:25;21.00;40.30
37886;DHT22;23726;52.520;13.434;2022-12-29T07:36:51;21.10;40.40
37886;DHT22;23726;52.520;13.434;2022-12-29T07:39:17;21.10;40.40
37886;DHT22;23726;52.520;13.434;2022-12-29T07:41:45;21.10;40.40
37886;DHT22;23726;52.520;13.434;2022-12-29T07:44:10;21.10;40.30
37886;DHT22;23726;52.520;13.434;2022-12-29T07:46:36;21.10;40.30
37886;DHT22;23726;52.520;13.434;2022-12-29T07:49:02;21.10;40.30
37886;DHT22;23726;52.520;13.434;2022-12-29T07:51:27;21.10;40.40
37886;DHT22;23726;52.520;13.434;2022-12-29T07:53:53;21.10;40.40
37886;DHT22;23726;52.520;13.434;2022-12-29T07:56:18;21.00;40.40
37886;DHT22;23726;52.520;13.434;2022-12-29T07:58:44;21.10;40.40
37886;DHT22;23726;52.520;13.434;2022-12-29T08:01:10;21.10;40.40
37886;DHT22;23726;52.520;13.434;2022-12-29T08:03:35;21.10;40.40
37886;DHT22;23726;52.520;13.434;2022-12-29T08:06:02;21.10;40.40
37886;DHT22;23726;52.520;13.434;2022-12-29T08:08:27;21.10;40.40
37886;DHT22;23726;52.520;13.434;2022-12-29T08:10:55;21.10;40.40
37886;DHT22;23726;52.520;13.434;2022-12-29T08:13:21;21.10;40.40
37886;DHT22;23726;52.520;13.434;2022-12-29T08:15:48;21.10;40.50
37886;DHT22;23726;52.520;13.434;2022-12-29T08:18:14;21.10;40.50
37886;DHT22;23726;52.520;13.434;2022-12-29T08:20:40;21.10;40.50
37886;DHT22;23726;52.520;13.434;2022-12-29T08:23:07;21.10;40.50
37886;DHT22;23726;52.520;13.434;2022-12-29T08:25:33;21.10;40.50
37886;DHT22;23726;52.520;13.434;2022-12-29T08:27:59;21.10;40.50
37886;DHT22;23726;52.520;13.434;2022-12-29T08:30:25;21.10;40.60
37886;DHT22;23726;52.520;13.434;2022-12-29T08:32:50;21.10;40.60
37886;DHT22;23726;52.520;13.434;2022-12-29T08:35:16;21.10;40.60
37886;DHT22;23726;52.520;13.434;2022-12-29T08:37:41;21.10;40.60
37886;DHT22;23726;52.520;13.434;2022-12-29T08:40:09;21.10;40.60
37886;DHT22;23726;52.520;13.434;2022-12-29T08:42:34;21.10;40.60
37886;DHT22;23726;52.520;13.434;2022-12-29T08:45:04;21.10;40.70
37886;DHT22;23726;52.520;13.434;2022-12-29T08:47:30;21.10;40.70
37886;DHT22;23726;52.520;13.434;2022-12-29T08:49:57;21.10;40.70
37886;DHT22;23726;52.520;13.434;2022-12-29T08:52:22;21.10;40.70
37886;DHT22;23726;52.520;13.434;2022-12-29T08:54:49;21.10;40.60
37886;DHT22;23726;52.520;13.434;2022-12-29T08:57:15;21.10;40.70
37886;DHT22;23726;52.520;13.434;2022-12-29T08:59:40;21.10;40.70
37886;DHT22;23726;52.520;13.434;2022-12-29T09:02:10;21.10;40.70
37886;DHT22;23726;52.520;13.434;2022-12-29T09:04:37;21.10;40.70
37886;DHT22;23726;52.520;13.434;2022-12-29T09:07:03;21.10;40.70
37886;DHT22;23726;52.520;13.434;2022-12-29T09:09:30;21.10;40.70
37886;DHT22;23726;52.520;13.434;2022-12-29T09:11:57;21.10;40.70
37886;DHT22;23726;52.520;13.434;2022-12-29T09:14:23;21.10;40.70
37886;DHT22;23726;52.520;13.434;2022-12-29T09:16:51;21.10;40.80
37886;DHT22;23726;52.520;13.434;2022-12-29T09:19:36;21.20;40.80
37886;DHT22;23726;52.520;13.434;2022-12-29T09:22:01;21.10;40.80
37886;DHT22;23726;52.520;13.434;2022-12-29T09:24:29;21.10;40.80
37886;DHT22;23726;52.520;13.434;2022-12-29T09:26:54;21.10;40.80
37886;DHT22;23726;52.520;13.434;2022-12-29T09:29:20;21.10;40.80
37886;DHT22;23726;52.520;13.434;2022-12-29T09:31:47;21.10;40.80
37886;DHT22;23726;52.520;13.434;2022-12-29T09:34:13;21.20;41.40
37886;DHT22;23726;52.520;13.434;2022-12-29T09:36:39;21.10;40.80
37886;DHT22;23726;52.520;13.434;2022-12-29T09:39:05;21.10;40.80
37886;DHT22;23726;52.520;13.434;2022-12-29T09:41:40;21.10;40.80
37886;DHT22;23726;52.520;13.434;2022-12-29T09:47:17;21.20;40.90
37886;DHT22;23726;52.520;13.434;2022-12-29T09:50:28;21.10;40.90
37886;DHT22;23726;52.520;13.434;2022-12-29T09:53:17;21.10;40.90
37886;DHT22;23726;52.520;13.434;2022-12-29T09:55:55;21.10;40.90
37886;DHT22;23726;52.520;13.434;2022-12-29T09:58:38;21.10;40.90
37886;DHT22;23726;52.520;13.434;2022-12-29T10:03:46;21.10;40.90
37886;DHT22;23726;52.520;13.434;2022-12-29T10:06:42;21.20;41.00
37886;DHT22;23726;52.520;13.434;2022-12-29T10:23:45;21.10;41.00
37886;DHT22;23726;52.520;13.434;2022-12-29T10:26:19;21.10;41.10
37886;DHT22;23726;52.520;13.434;2022-12-29T10:29:12;21.10;41.00
37886;DHT22;23726;52.520;13.434;2022-12-29T10:31:44;21.10;41.00
37886;DHT22;23726;52.520;13.434;2022-12-29T10:34:29;21.10;41.10
37886;DHT22;23726;52.520;13.434;2022-12-29T10:37:03;21.10;41.00
37886;DHT22;23726;52.520;13.434;2022-12-29T10:39:39;21.20;41.10
37886;DHT22;23726;52.520;13.434;2022-12-29T10:44:53;21.20;41.10
37886;DHT22;23726;52.520;13.434;2022-12-29T10:47:26;21.20;41.10
37886;DHT22;23726;52.520;13.434;2022-12-29T10:49:54;21.20;41.20
37886;DHT22;23726;52.520;13.434;2022-12-29T10:52:22;21.20;41.10
37886;DHT22;23726;52.520;13.434;2022-12-29T10:55:05;21.20;41.10
37886;DHT22;23726;52.520;13.434;2022-12-29T10:57:39;21.20;41.20
37886;DHT22;23726;52.520;13.434;2022-12-29T11:00:14;21.20;41.20
37886;DHT22;23726;52.520;13.434;2022-12-29T11:08:26;21.20;41.30
37886;DHT22;23726;52.520;13.434;2022-12-29T11:11:05;21.20;41.80
37886;DHT22;23726;52.520;13.434;2022-12-29T11:13:34;21.20;41.30
37886;DHT22;23726;52.520;13.434;2022-12-29T11:16:00;21.20;41.40
37886;DHT22;23726;52.520;13.434;2022-12-29T11:18:36;21.20;41.30
37886;DHT22;23726;52.520;13.434;2022-12-29T11:21:05;21.20;41.40
37886;DHT22;23726;52.520;13.434;2022-12-29T11:23:33;21.20;41.30
37886;DHT22;23726;52.520;13.434;2022-12-29T11:28:37;21.30;41.40
37886;DHT22;23726;52.520;13.434;2022-12-29T11:31:04;21.20;41.20
37886;DHT22;23726;52.520;13.434;2022-12-29T11:33:32;21.20;41.20
37886;DHT22;23726;52.520;13.434;2022-12-29T11:36:06;21.20;41.20
37886;DHT22;23726;52.520;13.434;2022-12-29T11:38:56;21.20;41.30
37886;DHT22;23726;52.520;13.434;2022-12-29T11:41:30;21.20;41.30
37886;DHT22;23726;52.520;13.434;2022-12-29T11:44:00;21.20;41.30
37886;DHT22;23726;52.520;13.434;2022-12-29T11:46:32;21.20;41.30
37886;DHT22;23726;52.520;13.434;2022-12-29T11:48:59;21.20;41.30
37886;DHT22;23726;52.520;13.434;2022-12-29T11:51:52;21.20;41.30
37886;DHT22;23726;52.520;13.434;2022-12-29T11:54:32;21.20;41.20
37886;DHT22;23726;52.520;13.434;2022-12-29T11:57:12;21.20;41.30
37886;DHT22;23726;52.520;13.434;2022-12-29T11:59:48;21.20;41.30
37886;DHT22;23726;52.520;13.434;2022-12-29T12:02:34;21.20;41.30
37886;DHT22;23726;52.520;13.434;2022-12-29T12:07:45;21.20;41.20
37886;DHT22;23726;52.520;13.434;2022-12-29T12:10:20;21.20;41.20
37886;DHT22;23726;52.520;13.434;2022-12-29T12:15:50;21.20;41.80
37886;DHT22;23726;52.520;13.434;2022-12-29T12:18:34;21.20;41.20
37886;DHT22;23726;52.520;13.434;2022-12-29T12:21:08;21.20;41.20
37886;DHT22;23726;52.520;13.434;2022-12-29T12:24:02;21.20;41.40
37886;DHT22;23726;52.520;13.434;2022-12-29T12:26:39;21.10;41.40
37886;DHT22;23726;52.520;13.434;2022-12-29T12:29:14;21.10;41.30
37886;DHT22;23726;52.520;13.434;2022-12-29T12:32:10;21.20;41.30
37886;DHT22;23726;52.520;13.434;2022-12-29T12:34:39;21.20;41.30
37886;DHT22;23726;52.520;13.434;2022-12-29T12:59:42;21.20;41.20
37886;DHT22;23726;52.520;13.434;2022-12-29T13:02:18;21.20;41.20
37886;DHT22;23726;52.520;13.434;2022-12-29T13:04:53;21.20;41.10
37886;DHT22;23726;52.520;13.434;2022-12-29T13:18:40;21.10;41.00
37886;DHT22;23726;52.520;13.434;2022-12-29T13:21:27;21.10;41.10
37886;DHT22;23726;52.520;13.434;2022-12-29T13:27:09;21.10;40.90
37886;DHT22;23726;52.520;13.434;2022-12-29T13:30:05;21.10;41.00
37886;DHT22;23726;52.520;13.434;2022-12-29T13:37:55;21.10;41.00
37886;DHT22;23726;52.520;13.434;2022-12-29T13:40:30;21.10;41.50
37886;DHT22;23726;52.520;13.434;2022-12-29T13:42:59;21.10;41.10
37886;DHT22;23726;52.520;13.434;2022-12-29T13:45:29;21.10;41.00
37886;DHT22;23726;52.520;13.434;2022-12-29T13:48:19;21.20;41.10
37886;DHT22;23726;52.520;13.434;2022-12-29T13:50:52;21.20;41.10
37886;DHT22;23726;52.520;13.434;2022-12-29T13:56:17;21.20;41.20
37886;DHT22;23726;52.520;13.434;2022-12-29T14:02:09;21.20;41.20
37886;DHT22;23726;52.520;13.434;2022-12-29T14:07:23;21.20;41.70
37886;DHT22;23726;52.520;13.434;2022-12-29T14:09:51;21.20;41.50
37886;DHT22;23726;52.520;13.434;2022-12-29T14:12:38;21.20;41.30
37886;DHT22;23726;52.520;13.434;2022-12-29T14:15:20;21.20;41.20
37886;DHT22;23726;52.520;13.434;2022-12-29T14:18:23;21.20;41.30
37886;DHT22;23726;52.520;13.434;2022-12-29T14:23:43;21.20;41.30
37886;DHT22;23726;52.520;13.434;2022-12-29T14:28:38;21.20;41.30
37886;DHT22;23726;52.520;13.434;2022-12-29T14:36:58;21.20;41.40
37886;DHT22;23726;52.520;13.434;2022-12-29T14:50:57;21.20;41.40
37886;DHT22;23726;52.520;13.434;2022-12-29T14:52:56;21.20;41.40
37886;DHT22;23726;52.520;13.434;2022-12-29T14:58:02;21.20;41.40
37886;DHT22;23726;52.520;13.434;2022-12-29T15:00:35;21.20;41.60
37886;DHT22;23726;52.520;13.434;2022-12-29T15:03:06;21.20;41.70
37886;DHT22;23726;52.520;13.434;2022-12-29T15:08:25;21.20;41.90
37886;DHT22;23726;52.520;13.434;2022-12-29T15:11:20;21.20;42.20
37886;DHT22;23726;52.520;13.434;2022-12-29T15:13:46;21.20;41.80
37886;DHT22;23726;52.520;13.434;2022-12-29T15:16:40;21.20;41.80
37886;DHT22;23726;52.520;13.434;2022-12-29T15:19:21;21.20;42.00
37886;DHT22;23726;52.520;13.434;2022-12-29T15:21:47;21.20;42.50
37886;DHT22;23726;52.520;13.434;2022-12-29T15:24:12;21.30;42.10
37886;DHT22;23726;52.520;13.434;2022-12-29T15:26:42;21.30;42.10
37886;DHT22;23726;52.520;13.434;2022-12-29T15:29:39;21.30;42.00
37886;DHT22;23726;52.520;13.434;2022-12-29T15:32:23;21.30;42.00
37886;DHT22;23726;52.520;13.434;2022-12-29T15:34:54;21.30;42.00
37886;DHT22;23726;52.520;13.434;2022-12-29T15:37:26;21.30;42.00
37886;DHT22;23726;52.520;13.434;2022-12-29T15:39:53;21.40;42.00
37886;DHT22;23726;52.520;13.434;2022-12-29T15:45:28;21.40;41.90
37886;DHT22;23726;52.520;13.434;2022-12-29T15:47:55;21.40;42.10
37886;DHT22;23726;52.520;13.434;2022-12-29T15:50:28;21.40;41.90
37886;DHT22;23726;52.520;13.434;2022-12-29T15:52:55;21.40;41.80
37886;DHT22;23726;52.520;13.434;2022-12-29T15:55:41;21.40;41.80
37886;DHT22;23726;52.520;13.434;2022-12-29T15:58:21;21.40;41.80
37886;DHT22;23726;52.520;13.434;2022-12-29T16:00:59;21.40;41.80
37886;DHT22;23726;52.520;13.434;2022-12-29T16:03:35;21.40;41.80
37886;DHT22;23726;52.520;13.434;2022-12-29T16:09:18;21.40;41.80
37886;DHT22;23726;52.520;13.434;2022-12-29T16:11:51;21.40;41.80
37886;DHT22;23726;52.520;13.434;2022-12-29T16:14:24;21.40;41.80
37886;DHT22;23726;52.520;13.434;2022-12-29T16:16:57;21.40;41.80
37886;DHT22;23726;52.520;13.434;2022-12-29T16:19:32;21.40;41.80
37886;DHT22;23726;52.520;13.434;2022-12-29T16:21:58;21.40;41.80
37886;DHT22;23726;52.520;13.434;2022-12-29T16:24:29;21.40;41.70
37886;DHT22;23726;52.520;13.434;2022-12-29T16:27:10;21.40;42.20
37886;DHT22;23726;52.520;13.434;2022-12-29T16:29:39;21.40;41.70
37886;DHT22;23726;52.520;13.434;2022-12-29T16:32:28;21.40;41.80
37886;DHT22;23726;52.520;13.434;2022-12-29T16:35:17;21.40;41.80
37886;DHT22;23726;52.520;13.434;2022-12-29T16:37:44;21.40;41.90
37886;DHT22;23726;52.520;13.434;2022-12-29T16:40:27;21.50;41.90
37886;DHT22;23726;52.520;13.434;2022-12-29T16:42:59;21.50;42.00
37886;DHT22;23726;52.520;13.434;2022-12-29T16:50:43;21.50;42.00
37886;DHT22;23726;52.520;13.434;2022-12-29T16:55:54;21.50;42.00
37886;DHT22;23726;52.520;13.434;2022-12-29T16:58:26;21.50;42.10
37886;DHT22;23726;52.520;13.434;2022-12-29T17:00:57;21.60;42.10
37886;DHT22;23726;52.520;13.434;2022-12-29T17:03:31;21.50;42.10
37886;DHT22;23726;52.520;13.434;2022-12-29T17:05:57;21.60;42.10
37886;DHT22;23726;52.520;13.434;2022-12-29T17:08:22;21.60;42.20
37886;DHT22;23726;52.520;13.434;2022-12-29T17:10:54;21.50;42.10
37886;DHT22;23726;52.520;13.434;2022-12-29T17:13:39;21.60;42.10
37886;DHT22;23726;52.520;13.434;2022-12-29T17:16:06;21.60;42.10
37886;DHT22;23726;52.520;13.434;2022-12-29T17:18:33;21.60;42.20
37886;DHT22;23726;52.520;13.434;2022-12-29T17:21:01;21.60;42.10
37886;DHT22;23726;52.520;13.434;2022-12-29T17:23:27;21.60;42.10
37886;DHT22;23726;52.520;13.434;2022-12-29T17:25:55;21.60;42.10
37886;DHT22;23726;52.520;13.434;2022-12-29T17:28:27;21.60;42.10
37886;DHT22;23726;52.520;13.434;2022-12-29T17:30:57;21.60;42.10
37886;DHT22;23726;52.520;13.434;2022-12-29T17:33:23;21.60;42.00
37886;DHT22;23726;52.520;13.434;2022-12-29T17:35:48;21.60;42.10
37886;DHT22;23726;52.520;13.434;2022-12-29T17:38:27;21.60;42.10
37886;DHT22;23726;52.520;13.434;2022-12-29T17:40:53;21.60;42.10
37886;DHT22;23726;52.520;13.434;2022-12-29T17:43:19;21.60;42.10
37886;DHT22;23726;52.520;13.434;2022-12-29T17:45:49;21.60;42.00
37886;DHT22;23726;52.520;13.434;2022-12-29T17:48:17;21.60;42.00
37886;DHT22;23726;52.520;13.434;2022-12-29T17:50:44;21.60;42.00
37886;DHT22;23726;52.520;13.434;2022-12-29T17:53:14;21.60;42.00
37886;DHT22;23726;52.520;13.434;2022-12-29T17:55:42;21.70;42.00
37886;DHT22;23726;52.520;13.434;2022-12-29T17:58:19;21.60;42.00
37886;DHT22;23726;52.520;13.434;2022-12-29T18:00:48;21.70;42.00
37886;DHT22;23726;52.520;13.434;2022-12-29T18:03:20;21.60;41.90
37886;DHT22;23726;52.520;13.434;2022-12-29T18:05:47;21.70;42.00
37886;DHT22;23726;52.520;13.434;2022-12-29T18:08:14;21.60;41.80
37886;DHT22;23726;52.520;13.434;2022-12-29T18:10:40;21.60;41.70
37886;DHT22;23726;52.520;13.434;2022-12-29T18:13:22;21.60;41.70
37886;DHT22;23726;52.520;13.434;2022-12-29T18:15:50;21.60;41.60
37886;DHT22;23726;52.520;13.434;2022-12-29T18:18:19;21.60;41.50
37886;DHT22;23726;52.520;13.434;2022-12-29T18:20:47;21.60;41.50
37886;DHT22;23726;52.520;13.434;2022-12-29T18:23:20;21.60;41.50
37886;DHT22;23726;52.520;13.434;2022-12-29T18:25:54;21.50;41.40